Terminal Aerodrome Forecast
Issued by NWS

Home | Current Version | Previous Version | Graphics & Text | Print | Product List | Glossary On
Versions: 1 2 3 4 5 6 7 8 9 10 11 12 13
000
FTUS43 KBIS 202320
TAFJMS
TAF
KJMS 202320Z 2100/2124 36005KT P6SM SCT140 BKN250
     FM211500 17004KT P6SM BKN120
     FM212000 23007KT P6SM BKN120
     FM212300 29007KT P6SM BKN150=

USA.gov is the U.S. government's official web portal to all federal, state and local government web resources and services.